createdAt,value
2019-04-29T00:00:13.326Z,7.00
2019-04-29T00:01:51.292Z,9.00
2019-04-29T00:03:27.750Z,8.20
2019-04-29T00:05:05.449Z,6.67
2019-04-29T00:06:41.847Z,7.80
2019-04-29T00:08:18.167Z,9.33
2019-04-29T00:09:54.686Z,8.07
2019-04-29T00:11:31.113Z,10.47
2019-04-29T00:13:07.697Z,8.67
2019-04-29T00:14:45.787Z,7.40
2019-04-29T00:16:40.602Z,10.17
2019-04-29T00:18:27.528Z,9.23
2019-04-29T00:20:06.600Z,8.27
2019-04-29T00:21:43.464Z,8.93
2019-04-29T00:23:20.075Z,9.63
2019-04-29T00:24:56.290Z,7.50
2019-04-29T00:26:33.782Z,7.00
2019-04-29T00:28:10.687Z,7.33
2019-04-29T00:29:47.014Z,9.43
2019-04-29T00:31:23.440Z,7.47
2019-04-29T00:32:59.847Z,7.43
2019-04-29T00:34:36.141Z,6.53
2019-04-29T00:36:13.493Z,7.27
2019-04-29T00:38:07.458Z,7.03
2019-04-29T00:39:43.980Z,6.13
2019-04-29T00:41:24.968Z,6.30
2019-04-29T00:43:18.796Z,5.77
2019-04-29T00:44:55.220Z,6.90
2019-04-29T00:46:31.822Z,5.33
2019-04-29T00:48:08.296Z,4.90
2019-04-29T00:49:44.929Z,4.83
2019-04-29T00:51:21.345Z,4.60
2019-04-29T00:52:57.846Z,5.33
2019-04-29T00:54:38.923Z,4.93
2019-04-29T00:56:15.417Z,5.00
2019-04-29T00:57:51.697Z,4.97
2019-04-29T00:59:28.226Z,4.47
2019-04-29T01:01:09.541Z,4.20
2019-04-29T01:02:46.099Z,4.33
2019-04-29T01:04:22.522Z,4.90
2019-04-29T01:05:59.023Z,5.87
2019-04-29T01:07:35.548Z,4.53
2019-04-29T01:09:14.844Z,3.57
2019-04-29T01:10:51.236Z,6.50
2019-04-29T01:12:27.558Z,4.50
2019-04-29T01:14:03.992Z,5.73
2019-04-29T01:15:40.515Z,4.67
2019-04-29T01:17:16.844Z,3.67
2019-04-29T01:18:53.175Z,3.93
2019-04-29T01:20:29.620Z,3.57
2019-04-29T01:22:06.217Z,4.53
2019-04-29T01:23:43.004Z,5.00
2019-04-29T01:25:19.433Z,3.80
2019-04-29T01:26:55.787Z,4.10
2019-04-29T01:28:36.690Z,4.70
2019-04-29T01:30:36.859Z,5.17
2019-04-29T01:32:13.210Z,4.80
2019-04-29T01:35:24.059Z,4.33
2019-04-29T01:37:00.386Z,5.07
2019-04-29T01:38:36.739Z,5.80
2019-04-29T01:40:15.276Z,5.27
2019-04-29T01:41:53.279Z,5.63
2019-04-29T01:43:47.409Z,5.40
2019-04-29T01:45:23.703Z,5.80
2019-04-29T01:46:59.993Z,5.53
2019-04-29T01:48:36.246Z,5.87
2019-04-29T01:50:12.845Z,7.40
2019-04-29T01:51:49.395Z,6.00
2019-04-29T01:53:25.651Z,5.27
2019-04-29T01:55:02.009Z,7.07
2019-04-29T01:56:39.421Z,5.73
2019-04-29T01:58:15.677Z,6.93
2019-04-29T01:59:51.864Z,5.93
2019-04-29T02:01:28.047Z,5.57
2019-04-29T02:03:04.552Z,5.43
2019-04-29T02:04:41.024Z,5.70
2019-04-29T02:06:17.541Z,5.10
2019-04-29T02:07:53.974Z,6.93
2019-04-29T02:09:31.803Z,5.70
2019-04-29T02:11:08.140Z,8.07
2019-04-29T02:12:44.516Z,5.90
2019-04-29T02:14:20.830Z,6.03
2019-04-29T02:15:57.180Z,6.23
2019-04-29T02:17:33.436Z,6.00
2019-04-29T02:19:10.092Z,6.10
2019-04-29T02:20:46.447Z,6.87
2019-04-29T02:22:30.172Z,6.63
2019-04-29T02:24:06.225Z,6.93
2019-04-29T02:25:47.289Z,7.20
2019-04-29T02:27:23.579Z,6.80
2019-04-29T02:28:59.927Z,7.43
2019-04-29T02:30:49.271Z,7.43
2019-04-29T02:32:25.452Z,8.43
2019-04-29T02:34:01.813Z,8.27
2019-04-29T02:35:38.145Z,9.20
2019-04-29T02:37:16.028Z,8.43
2019-04-29T02:39:10.284Z,8.60
2019-04-29T02:41:04.793Z,10.57
2019-04-29T02:42:42.853Z,8.63
2019-04-29T02:44:19.448Z,8.47
2019-04-29T02:45:55.635Z,9.73
2019-04-29T02:47:32.091Z,10.13
2019-04-29T02:49:09.591Z,11.43
2019-04-29T02:50:45.872Z,9.60
2019-04-29T02:52:22.242Z,10.97
2019-04-29T02:53:58.517Z,11.13
2019-04-29T02:55:36.396Z,11.50
2019-04-29T02:57:14.325Z,12.03
2019-04-29T02:58:52.389Z,11.23
2019-04-29T03:00:33.519Z,10.97
2019-04-29T03:02:15.720Z,11.90
2019-04-29T03:03:55.770Z,12.90
2019-04-29T03:05:34.095Z,13.83
2019-04-29T03:07:10.464Z,13.53
2019-04-29T03:08:46.858Z,13.37
2019-04-29T03:10:24.359Z,13.37
2019-04-29T03:12:02.118Z,13.63
2019-04-29T03:13:38.581Z,16.50
2019-04-29T03:15:19.465Z,12.27
2019-04-29T03:16:55.956Z,12.37
2019-04-29T03:18:34.096Z,11.63
2019-04-29T03:20:11.769Z,11.17
2019-04-29T03:21:52.482Z,11.07
2019-04-29T03:23:29.442Z,9.67
2019-04-29T03:25:06.442Z,10.00
2019-04-29T03:26:42.964Z,8.10
2019-04-29T03:28:19.465Z,8.77
2019-04-29T03:29:55.923Z,8.43
2019-04-29T03:31:38.610Z,9.03
2019-04-29T03:33:10.217Z,8.67
2019-04-29T03:34:46.605Z,8.87
2019-04-29T03:36:22.965Z,9.37
2019-04-29T03:37:59.469Z,9.53
2019-04-29T03:39:36.813Z,8.50
2019-04-29T03:41:13.253Z,7.83
2019-04-29T03:42:49.674Z,8.13
2019-04-29T03:44:26.003Z,8.10
2019-04-29T03:46:02.329Z,8.60
2019-04-29T03:47:38.753Z,6.47
2019-04-29T03:49:16.126Z,6.30
2019-04-29T03:50:52.478Z,6.60
2019-04-29T03:52:28.658Z,7.00
2019-04-29T03:54:05.057Z,7.37
2019-04-29T03:55:41.376Z,6.57
2019-04-29T03:57:18.524Z,6.83
2019-04-29T03:58:54.805Z,8.97
2019-04-29T04:00:31.244Z,9.17
2019-04-29T04:02:09.410Z,9.70
2019-04-29T04:03:47.860Z,8.63
2019-04-29T04:05:25.717Z,9.33
2019-04-29T04:07:19.977Z,8.90
2019-04-29T04:09:06.098Z,10.73
2019-04-29T04:10:35.963Z,9.97
2019-04-29T04:12:12.299Z,11.20
2019-04-29T04:13:48.615Z,12.33
2019-04-29T04:15:24.991Z,12.07
2019-04-29T04:17:08.935Z,10.60
2019-04-29T04:18:45.827Z,11.17
2019-04-29T04:20:41.606Z,11.97
2019-04-29T04:22:18.187Z,13.63
2019-04-29T04:23:57.953Z,13.83
2019-04-29T04:25:32.782Z,12.87
2019-04-29T04:27:09.132Z,14.07
2019-04-29T04:28:45.691Z,14.90
2019-04-29T04:30:22.573Z,20.23
2019-04-29T04:31:58.825Z,18.00
2019-04-29T04:33:35.269Z,18.50
2019-04-29T04:35:12.471Z,21.20
2019-04-29T04:36:49.886Z,21.37
2019-04-29T04:38:26.259Z,21.07
2019-04-29T04:40:02.695Z,21.60
2019-04-29T04:41:38.989Z,20.27
2019-04-29T04:43:15.429Z,24.87
2019-04-29T04:44:51.713Z,31.33
2019-04-29T04:46:27.907Z,37.80
2019-04-29T04:48:04.242Z,43.90
2019-04-29T04:49:40.611Z,42.40
2019-04-29T04:51:16.917Z,70.50
2019-04-29T04:52:53.243Z,54.03
2019-04-29T04:54:31.514Z,78.47
2019-04-29T04:56:07.691Z,41.60
2019-04-29T04:57:44.480Z,39.63
2019-04-29T04:59:20.798Z,28.97
2019-04-29T05:00:57.430Z,28.93
2019-04-29T05:02:33.901Z,26.43
2019-04-29T05:04:11.354Z,32.27
2019-04-29T05:05:47.537Z,28.57
2019-04-29T05:07:24.049Z,25.80
2019-04-29T05:09:00.409Z,29.77
2019-04-29T05:10:37.149Z,25.90
2019-04-29T05:12:14.237Z,28.60
2019-04-29T05:13:50.134Z,29.80
2019-04-29T05:15:26.643Z,23.73
2019-04-29T05:17:03.054Z,24.47
2019-04-29T05:18:39.242Z,33.50
2019-04-29T05:20:16.050Z,25.37
2019-04-29T05:21:52.267Z,32.60
2019-04-29T05:23:28.457Z,30.87
2019-04-29T05:25:07.558Z,29.77
2019-04-29T05:26:43.820Z,24.70
2019-04-29T05:28:20.231Z,27.87
2019-04-29T05:29:56.410Z,33.93
2019-04-29T05:31:32.788Z,25.63
2019-04-29T05:33:08.979Z,35.50
2019-04-29T05:34:48.208Z,22.80
2019-04-29T05:36:29.416Z,22.40
2019-04-29T05:38:13.685Z,28.23
2019-04-29T05:39:50.985Z,25.13
2019-04-29T05:41:30.077Z,24.27
2019-04-29T05:43:05.430Z,24.83
2019-04-29T05:44:43.511Z,27.77
2019-04-29T05:46:25.375Z,24.33
2019-04-29T05:48:03.306Z,22.27
2019-04-29T05:49:43.995Z,20.27
2019-04-29T05:51:28.595Z,23.40
2019-04-29T05:53:16.124Z,21.57
2019-04-29T05:54:50.327Z,21.97
2019-04-29T05:56:26.709Z,24.80
2019-04-29T05:58:11.847Z,22.70
2019-04-29T05:59:49.492Z,27.17
2019-04-29T06:01:27.573Z,22.77
2019-04-29T06:03:04.017Z,22.30
2019-04-29T06:04:40.221Z,22.10
2019-04-29T06:06:17.840Z,26.23
2019-04-29T06:07:56.089Z,27.20
2019-04-29T06:09:31.642Z,24.27
2019-04-29T06:11:08.014Z,25.73
2019-04-29T06:12:44.667Z,22.37
2019-04-29T06:14:22.246Z,24.50
2019-04-29T06:15:58.895Z,25.80
2019-04-29T06:17:35.164Z,24.67
2019-04-29T06:19:11.707Z,28.97
2019-04-29T06:20:47.979Z,20.97
2019-04-29T06:22:24.351Z,25.80
2019-04-29T06:24:04.162Z,29.50
2019-04-29T06:25:38.963Z,31.83
2019-04-29T06:27:15.346Z,31.93
2019-04-29T06:28:51.155Z,29.87
2019-04-29T06:30:27.609Z,33.57
2019-04-29T06:32:04.090Z,30.93
2019-04-29T06:33:40.614Z,25.20
2019-04-29T06:35:17.052Z,25.97
2019-04-29T06:36:53.425Z,32.43
2019-04-29T06:38:29.888Z,25.57
2019-04-29T06:40:09.805Z,29.13
2019-04-29T06:41:46.935Z,28.00
2019-04-29T06:43:24.496Z,26.47
2019-04-29T06:45:01.834Z,26.33
2019-04-29T06:46:38.509Z,25.73
2019-04-29T06:48:15.232Z,27.70
2019-04-29T06:49:51.555Z,25.07
2019-04-29T06:51:27.965Z,25.10
2019-04-29T06:53:05.016Z,28.30
2019-04-29T06:54:41.384Z,29.23
2019-04-29T06:56:17.796Z,26.33
2019-04-29T06:57:54.063Z,32.20
2019-04-29T06:59:30.266Z,25.70
2019-04-29T07:01:06.772Z,29.10
2019-04-29T07:02:45.532Z,30.33
2019-04-29T07:04:21.162Z,33.43
2019-04-29T07:05:57.600Z,31.10
2019-04-29T07:07:36.334Z,36.73
2019-04-29T07:09:12.757Z,34.80
2019-04-29T07:10:50.514Z,33.37
2019-04-29T07:12:27.896Z,33.40
2019-04-29T07:14:04.617Z,40.83
2019-04-29T07:15:43.410Z,31.03
2019-04-29T07:17:19.366Z,34.20
2019-04-29T07:18:56.048Z,28.53
2019-04-29T07:20:36.725Z,24.67
2019-04-29T07:22:10.625Z,25.03
2019-04-29T07:23:47.385Z,25.03
2019-04-29T07:25:24.654Z,26.10
2019-04-29T07:27:02.707Z,28.60
2019-04-29T07:28:39.867Z,20.50
2019-04-29T07:30:16.610Z,25.80
2019-04-29T07:31:54.539Z,23.60
2019-04-29T07:33:31.658Z,22.60
2019-04-29T07:35:09.915Z,26.13
2019-04-29T07:36:47.346Z,25.30
2019-04-29T07:38:23.625Z,24.00
2019-04-29T07:40:03.649Z,23.47
2019-04-29T07:41:40.688Z,30.60
2019-04-29T07:43:17.066Z,26.33
2019-04-29T07:45:12.101Z,32.13
2019-04-29T07:46:56.808Z,38.17
2019-04-29T07:48:28.987Z,31.53
2019-04-29T07:50:07.369Z,29.13
2019-04-29T07:51:44.338Z,32.63
2019-04-29T07:53:26.915Z,46.70
2019-04-29T07:54:58.790Z,61.33
2019-04-29T07:56:37.921Z,153.83
2019-04-29T07:58:13.651Z,143.60
2019-04-29T07:59:50.045Z,129.90
2019-04-29T08:01:26.619Z,96.33
2019-04-29T08:03:06.006Z,134.37
2019-04-29T08:04:42.511Z,91.07
2019-04-29T08:06:19.829Z,65.93
2019-04-29T08:07:57.536Z,52.30
2019-04-29T08:09:34.689Z,91.00
2019-04-29T08:11:12.307Z,69.40
2019-04-29T08:12:50.323Z,74.30
2019-04-29T08:14:31.261Z,64.37
2019-04-29T08:16:12.737Z,53.47
2019-04-29T08:17:51.342Z,34.70
2019-04-29T08:19:29.316Z,29.87
2019-04-29T08:21:05.064Z,33.00
2019-04-29T08:22:41.447Z,35.80
2019-04-29T08:24:17.758Z,33.53
2019-04-29T08:25:57.657Z,30.20
2019-04-29T08:27:39.907Z,27.13
2019-04-29T08:29:09.744Z,31.40
2019-04-29T08:30:47.408Z,28.17
2019-04-29T08:32:23.312Z,29.10
2019-04-29T08:34:00.105Z,40.23
2019-04-29T08:35:38.261Z,27.23
2019-04-29T08:37:14.675Z,28.57
2019-04-29T08:38:51.051Z,26.53
2019-04-29T08:40:27.398Z,26.63
2019-04-29T08:42:09.025Z,28.33
2019-04-29T08:43:46.955Z,30.50
2019-04-29T08:45:34.639Z,30.00
2019-04-29T08:47:10.972Z,30.40
2019-04-29T08:48:47.185Z,29.77
2019-04-29T08:50:23.716Z,32.93
2019-04-29T08:51:59.951Z,28.93
2019-04-29T08:53:36.319Z,35.53
2019-04-29T08:55:13.305Z,28.10
2019-04-29T08:57:02.349Z,33.57
2019-04-29T08:58:29.228Z,30.73
2019-04-29T09:00:11.593Z,30.97
2019-04-29T09:01:48.432Z,28.57
2019-04-29T09:03:39.381Z,25.83
2019-04-29T09:05:06.816Z,27.23
2019-04-29T09:06:40.947Z,26.87
2019-04-29T09:08:17.341Z,26.33
2019-04-29T09:09:56.125Z,24.17
2019-04-29T09:11:31.816Z,26.17
2019-04-29T09:13:08.378Z,26.30
2019-04-29T09:14:45.146Z,23.60
2019-04-29T09:16:21.592Z,24.03
2019-04-29T09:17:58.067Z,28.07
2019-04-29T09:19:35.820Z,22.97
2019-04-29T09:21:12.492Z,19.07
2019-04-29T09:22:50.476Z,20.47
2019-04-29T09:24:26.931Z,18.33
2019-04-29T09:26:08.935Z,17.23
2019-04-29T09:27:47.601Z,20.10
2019-04-29T09:29:38.913Z,20.97
2019-04-29T09:31:15.394Z,20.17
2019-04-29T09:32:51.773Z,21.40
2019-04-29T09:34:28.522Z,17.30
2019-04-29T09:36:05.089Z,19.03
2019-04-29T09:37:42.522Z,17.93
2019-04-29T09:39:21.247Z,18.33
2019-04-29T09:40:59.506Z,19.23
2019-04-29T09:42:45.491Z,16.20
2019-04-29T09:44:35.276Z,16.10
2019-04-29T09:46:14.303Z,16.57
2019-04-29T09:47:50.974Z,17.63
2019-04-29T09:49:27.272Z,19.83
2019-04-29T09:51:16.782Z,15.60
2019-04-29T09:52:42.432Z,17.97
2019-04-29T09:54:19.073Z,15.40
2019-04-29T09:55:57.357Z,18.30
2019-04-29T09:57:33.699Z,14.10
2019-04-29T09:59:25.049Z,16.50
2019-04-29T10:01:21.272Z,18.70
2019-04-29T10:03:02.942Z,16.40
2019-04-29T10:04:57.497Z,15.03
2019-04-29T10:06:35.977Z,19.13
2019-04-29T10:08:12.588Z,14.67
2019-04-29T10:09:56.833Z,14.90
2019-04-29T10:11:27.887Z,17.73
2019-04-29T10:13:04.462Z,18.23
2019-04-29T10:14:40.794Z,17.57
2019-04-29T10:16:19.210Z,18.37
2019-04-29T10:18:00.088Z,18.80
2019-04-29T10:19:36.672Z,20.63
2019-04-29T10:21:21.585Z,19.70
2019-04-29T10:22:55.195Z,21.40
2019-04-29T10:24:31.510Z,23.77
2019-04-29T10:26:08.333Z,20.43
2019-04-29T10:27:45.420Z,25.03
2019-04-29T10:29:25.800Z,27.80
2019-04-29T10:31:03.770Z,26.50
2019-04-29T10:32:42.483Z,26.57
2019-04-29T10:34:19.335Z,27.60
2019-04-29T10:35:55.682Z,29.93
2019-04-29T10:37:32.733Z,26.63
2019-04-29T10:39:25.375Z,27.77
2019-04-29T10:41:06.310Z,33.47
2019-04-29T10:42:47.299Z,26.80
2019-04-29T10:44:31.136Z,28.80
2019-04-29T10:46:09.395Z,29.67
2019-04-29T10:47:56.902Z,28.00
2019-04-29T10:49:39.247Z,34.07
2019-04-29T10:51:15.157Z,37.00
2019-04-29T10:52:51.604Z,30.13
2019-04-29T10:54:29.462Z,28.67
2019-04-29T10:56:06.985Z,29.13
2019-04-29T10:57:44.900Z,29.80
2019-04-29T10:59:34.971Z,33.33
2019-04-29T11:01:29.252Z,33.00
2019-04-29T11:03:05.144Z,26.17
2019-04-29T11:04:41.899Z,24.47
2019-04-29T11:06:20.157Z,26.27
2019-04-29T11:07:58.105Z,26.57
2019-04-29T11:09:37.741Z,23.00
2019-04-29T11:11:23.009Z,24.70
2019-04-29T11:12:53.424Z,26.50
2019-04-29T11:14:33.163Z,31.00
2019-04-29T11:16:11.112Z,26.63
2019-04-29T11:17:47.937Z,38.03
2019-04-29T11:19:24.375Z,45.90
2019-04-29T11:21:00.912Z,45.17
2019-04-29T11:22:44.670Z,31.33
2019-04-29T11:24:39.000Z,31.70
2019-04-29T11:26:33.630Z,33.30
2019-04-29T11:28:12.010Z,32.70
2019-04-29T11:29:48.457Z,33.17
2019-04-29T11:31:25.274Z,32.53
2019-04-29T11:33:04.832Z,30.77
2019-04-29T11:34:59.360Z,35.00
2019-04-29T11:36:38.931Z,29.23
2019-04-29T11:38:15.270Z,30.67
2019-04-29T11:39:51.814Z,28.70
2019-04-29T11:41:31.529Z,27.97
2019-04-29T11:43:15.612Z,28.83
2019-04-29T11:44:51.374Z,30.30
2019-04-29T11:46:28.209Z,27.57
2019-04-29T11:48:05.217Z,27.27
2019-04-29T11:49:43.465Z,24.07
2019-04-29T11:51:49.390Z,27.90
2019-04-29T11:53:15.666Z,24.83
2019-04-29T11:54:52.065Z,31.60
2019-04-29T11:56:29.604Z,32.27
2019-04-29T11:58:10.733Z,30.53
2019-04-29T12:00:05.565Z,30.40
2019-04-29T12:01:50.904Z,30.53
2019-04-29T12:03:33.728Z,30.83
2019-04-29T12:05:13.371Z,23.87
2019-04-29T12:06:51.147Z,24.60
2019-04-29T12:08:28.371Z,26.50
2019-04-29T12:10:07.953Z,26.53
2019-04-29T12:11:44.456Z,33.53
2019-04-29T12:13:27.118Z,28.00
2019-04-29T12:15:04.310Z,28.20
2019-04-29T12:16:58.675Z,26.87
2019-04-29T12:18:38.300Z,25.23
2019-04-29T12:20:31.754Z,31.17
2019-04-29T12:22:09.293Z,32.77
2019-04-29T12:23:47.743Z,27.50
2019-04-29T12:25:27.498Z,25.40
2019-04-29T12:27:04.169Z,28.63
2019-04-29T12:28:42.787Z,28.93
2019-04-29T12:30:22.611Z,30.20
2019-04-29T12:32:15.962Z,29.07
2019-04-29T12:34:00.197Z,29.80
2019-04-29T12:35:51.008Z,26.93
2019-04-29T12:37:18.844Z,26.40
2019-04-29T12:39:13.255Z,32.30
2019-04-29T12:41:00.129Z,29.17
2019-04-29T12:42:40.125Z,28.13
2019-04-29T12:44:17.784Z,33.17
2019-04-29T12:46:10.268Z,34.47
2019-04-29T12:47:46.936Z,30.03
2019-04-29T12:49:23.376Z,29.47
2019-04-29T12:51:00.167Z,40.57
2019-04-29T12:52:36.706Z,27.30
2019-04-29T12:54:13.256Z,23.03
2019-04-29T12:55:53.538Z,21.67
2019-04-29T12:57:29.804Z,22.27
2019-04-29T12:59:07.133Z,19.57
2019-04-29T13:00:48.038Z,26.50
2019-04-29T13:02:24.316Z,25.17
2019-04-29T13:04:03.288Z,20.23
2019-04-29T13:05:42.463Z,21.00
2019-04-29T13:07:18.804Z,19.60
2019-04-29T13:09:01.647Z,22.10
2019-04-29T13:10:48.169Z,36.50
2019-04-29T13:12:30.378Z,22.10
2019-04-29T13:14:07.139Z,21.13
2019-04-29T13:15:54.421Z,22.53
2019-04-29T13:17:46.357Z,20.73
2019-04-29T13:19:31.146Z,19.40
2019-04-29T13:21:10.380Z,20.97
2019-04-29T13:22:46.179Z,21.10
2019-04-29T13:24:25.092Z,26.00
2019-04-29T13:26:02.179Z,25.40
2019-04-29T13:27:39.018Z,24.20
2019-04-29T13:29:26.969Z,22.27
2019-04-29T13:30:56.814Z,23.20
2019-04-29T13:32:35.619Z,21.20
2019-04-29T13:34:23.530Z,22.23
2019-04-29T13:35:50.976Z,23.67
2019-04-29T13:37:27.411Z,24.27
2019-04-29T13:39:05.641Z,26.40
2019-04-29T13:40:42.387Z,24.00
2019-04-29T13:42:18.910Z,30.00
2019-04-29T13:44:04.093Z,30.23
2019-04-29T13:45:37.277Z,30.83
2019-04-29T13:47:30.837Z,25.80
2019-04-29T13:49:25.179Z,23.83
2019-04-29T13:51:06.392Z,40.40
2019-04-29T13:52:42.669Z,37.30
2019-04-29T13:54:19.068Z,50.53
2019-04-29T13:56:10.439Z,23.67
2019-04-29T13:57:33.934Z,24.57
2019-04-29T13:59:12.648Z,20.63
2019-04-29T14:01:20.501Z,25.30
2019-04-29T14:02:58.458Z,22.30
2019-04-29T14:04:26.648Z,25.63
2019-04-29T14:06:05.440Z,27.33
2019-04-29T14:07:41.890Z,28.00
2019-04-29T14:09:18.501Z,31.30
2019-04-29T14:10:55.069Z,36.77
2019-04-29T14:12:48.883Z,37.13
2019-04-29T14:14:09.854Z,35.03
2019-04-29T14:15:46.848Z,34.53
2019-04-29T14:17:31.370Z,26.47
2019-04-29T14:19:01.835Z,26.23
2019-04-29T14:20:38.308Z,27.97
2019-04-29T14:22:22.539Z,23.83
2019-04-29T14:23:54.583Z,23.30
2019-04-29T14:25:31.520Z,21.10
2019-04-29T14:27:08.236Z,20.93
2019-04-29T14:28:44.597Z,20.50
2019-04-29T14:30:21.583Z,22.50
2019-04-29T14:32:01.314Z,23.40
2019-04-29T14:33:39.918Z,23.93
2019-04-29T14:35:36.550Z,27.07
2019-04-29T14:37:21.411Z,30.57
2019-04-29T14:38:51.276Z,25.53
2019-04-29T14:40:28.046Z,28.57
2019-04-29T14:42:06.212Z,31.87
2019-04-29T14:44:01.672Z,34.40
2019-04-29T14:45:56.807Z,38.50
2019-04-29T14:47:35.928Z,39.33
2019-04-29T14:49:14.341Z,34.23
2019-04-29T14:50:54.212Z,34.30
2019-04-29T14:52:29.625Z,32.90
2019-04-29T14:54:07.522Z,36.97
2019-04-29T14:55:44.301Z,31.37
2019-04-29T14:57:20.576Z,32.27
2019-04-29T14:59:06.689Z,33.33
2019-04-29T15:00:36.761Z,31.17
2019-04-29T15:02:27.210Z,30.90
2019-04-29T15:04:17.273Z,27.77
2019-04-29T15:05:43.501Z,28.80
2019-04-29T15:07:20.120Z,28.93
2019-04-29T15:08:56.694Z,28.63
2019-04-29T15:10:36.771Z,30.50
2019-04-29T15:12:23.990Z,33.90
2019-04-29T15:14:06.492Z,81.87
2019-04-29T15:15:44.969Z,102.80
2019-04-29T15:17:27.179Z,70.73
2019-04-29T15:19:13.115Z,46.20
2019-04-29T15:20:56.417Z,36.37
2019-04-29T15:22:41.799Z,39.80
2019-04-29T15:24:18.426Z,38.80
2019-04-29T15:25:55.853Z,43.07
2019-04-29T15:27:32.775Z,43.20
2019-04-29T15:29:09.376Z,47.10
2019-04-29T15:30:46.222Z,42.03
2019-04-29T15:32:23.857Z,44.73
2019-04-29T15:34:00.678Z,44.43
2019-04-29T15:35:37.499Z,39.83
2019-04-29T15:37:13.969Z,45.10
2019-04-29T15:39:07.885Z,45.10
2019-04-29T15:40:29.065Z,44.73
2019-04-29T15:42:06.884Z,50.87
2019-04-29T15:43:47.676Z,61.47
2019-04-29T15:45:22.828Z,111.70
2019-04-29T15:46:59.414Z,65.83
2019-04-29T15:48:36.202Z,51.80
2019-04-29T15:50:18.784Z,44.93
2019-04-29T15:51:51.325Z,49.07
2019-04-29T15:53:27.836Z,46.17
2019-04-29T15:55:05.251Z,48.43
2019-04-29T15:56:41.627Z,52.80
2019-04-29T15:58:22.739Z,49.50
2019-04-29T15:59:59.678Z,55.57
2019-04-29T16:01:34.937Z,53.97
2019-04-29T16:03:12.727Z,59.70
2019-04-29T16:05:04.579Z,56.13
2019-04-29T16:06:43.020Z,51.67
2019-04-29T16:08:21.041Z,49.23
2019-04-29T16:10:00.456Z,57.13
2019-04-29T16:11:50.180Z,56.33
2019-04-29T16:13:27.756Z,51.13
2019-04-29T16:15:06.412Z,57.77
2019-04-29T16:16:42.674Z,58.63
2019-04-29T16:18:18.946Z,58.30
2019-04-29T16:19:55.817Z,54.77
2019-04-29T16:21:38.361Z,58.50
2019-04-29T16:23:10.273Z,54.67
2019-04-29T16:24:46.981Z,55.07
2019-04-29T16:26:24.966Z,55.40
2019-04-29T16:28:01.459Z,60.53
2019-04-29T16:29:37.729Z,65.00
2019-04-29T16:31:14.599Z,64.33
2019-04-29T16:32:51.262Z,62.60
2019-04-29T16:34:27.640Z,67.20
2019-04-29T16:36:05.291Z,67.03
2019-04-29T16:37:42.157Z,62.97
2019-04-29T16:39:19.593Z,67.83
2019-04-29T16:40:57.692Z,61.67
2019-04-29T16:42:35.780Z,69.00
2019-04-29T16:44:33.967Z,78.00
2019-04-29T16:45:56.668Z,75.63
2019-04-29T16:47:33.015Z,75.47
2019-04-29T16:49:09.452Z,71.90
2019-04-29T16:50:46.817Z,83.33
2019-04-29T16:52:23.110Z,80.73
2019-04-29T16:53:59.799Z,81.73
2019-04-29T16:55:42.900Z,84.33
2019-04-29T16:57:15.259Z,89.07
2019-04-29T16:58:52.692Z,84.13
2019-04-29T17:00:30.690Z,81.67
2019-04-29T17:02:06.627Z,78.27
2019-04-29T17:03:43.415Z,117.13
2019-04-29T17:05:20.041Z,104.13
2019-04-29T17:08:36.277Z,88.40
2019-04-29T17:10:23.786Z,88.00
2019-04-29T17:12:01.889Z,95.17
2019-04-29T17:13:39.039Z,85.73
2019-04-29T17:15:24.586Z,82.53
2019-04-29T17:16:53.787Z,86.90
2019-04-29T17:18:30.427Z,89.87
2019-04-29T17:20:08.465Z,87.63
2019-04-29T17:21:45.959Z,85.03
2019-04-29T17:23:24.389Z,97.33
2019-04-29T17:25:00.378Z,91.33
2019-04-29T17:26:44.737Z,84.60
2019-04-29T17:28:35.754Z,92.70
2019-04-29T17:30:18.952Z,84.80
2019-04-29T17:31:59.909Z,79.17
2019-04-29T17:33:50.384Z,84.30
2019-04-29T17:35:19.279Z,95.30
2019-04-29T17:35:28.551Z,92.40
2019-04-29T17:37:06.438Z,97.37
2019-04-29T17:38:42.815Z,89.87
2019-04-29T17:40:21.299Z,103.13
2019-04-29T17:41:58.152Z,109.20
2019-04-29T17:43:48.272Z,94.60
2019-04-29T17:45:30.597Z,88.50
2019-04-29T17:47:18.412Z,76.43
2019-04-29T17:49:12.832Z,75.00
2019-04-29T17:50:54.007Z,78.53
2019-04-29T17:52:30.973Z,94.97
2019-04-29T17:54:09.155Z,79.20
2019-04-29T17:55:47.518Z,89.73
2019-04-29T17:57:30.766Z,82.47
2019-04-29T17:59:22.727Z,82.17
2019-04-29T18:01:18.274Z,92.27
2019-04-29T18:03:00.700Z,99.00
2019-04-29T18:04:45.800Z,106.77
2019-04-29T18:06:24.731Z,94.97
2019-04-29T18:08:02.069Z,116.97
2019-04-29T18:09:40.084Z,116.87
2019-04-29T18:11:16.471Z,108.67
2019-04-29T18:12:53.120Z,120.20
2019-04-29T18:14:37.232Z,106.13
2019-04-29T18:16:17.436Z,144.43
2019-04-29T18:17:47.052Z,127.90
2019-04-29T18:19:34.844Z,118.33
2019-04-29T18:21:25.006Z,113.17
2019-04-29T18:23:01.217Z,120.30
2019-04-29T18:24:44.934Z,110.50
2019-04-29T18:26:28.972Z,126.73
2019-04-29T18:28:05.592Z,124.80
2019-04-29T18:29:43.096Z,109.80
2019-04-29T18:31:19.578Z,126.37
2019-04-29T18:32:56.061Z,125.43
2019-04-29T18:34:33.800Z,125.60
2019-04-29T18:36:19.584Z,136.47
2019-04-29T18:37:48.650Z,139.17
2019-04-29T18:39:28.182Z,136.50
2019-04-29T18:41:04.910Z,203.73
2019-04-29T18:42:43.280Z,268.47
2019-04-29T18:44:19.931Z,168.27
2019-04-29T18:45:58.983Z,157.70
2019-04-29T18:47:36.997Z,188.30
2019-04-29T18:49:12.796Z,194.17
2019-04-29T18:50:49.440Z,186.47
2019-04-29T18:52:28.363Z,259.23
2019-04-29T18:54:06.176Z,155.80
2019-04-29T18:55:42.881Z,252.30
2019-04-29T18:57:27.941Z,226.43
2019-04-29T18:58:57.812Z,180.63
2019-04-29T19:00:34.885Z,204.53
2019-04-29T19:02:12.029Z,213.47
2019-04-29T19:03:52.640Z,194.67
2019-04-29T19:05:32.279Z,203.57
2019-04-29T19:07:08.941Z,194.50
2019-04-29T19:08:46.541Z,163.50
2019-04-29T19:10:32.147Z,219.53
2019-04-29T19:12:01.510Z,186.60
2019-04-29T19:13:38.151Z,171.90
2019-04-29T19:15:15.499Z,172.83
2019-04-29T19:17:00.119Z,203.33
2019-04-29T19:18:32.321Z,183.67
2019-04-29T19:20:13.014Z,256.60
2019-04-29T19:21:48.210Z,171.20
2019-04-29T19:23:29.221Z,162.67
2019-04-29T19:25:02.684Z,165.73
2019-04-29T19:26:39.195Z,178.20
2019-04-29T19:28:24.936Z,176.73
2019-04-29T19:29:55.048Z,170.60
2019-04-29T19:31:36.809Z,199.90
2019-04-29T19:33:10.444Z,164.17
2019-04-29T19:34:50.174Z,152.70
2019-04-29T19:36:25.448Z,154.37
2019-04-29T19:38:01.830Z,155.50
2019-04-29T19:39:38.184Z,156.23
2019-04-29T19:41:16.214Z,167.93
2019-04-29T19:42:52.693Z,170.53
2019-04-29T19:44:33.247Z,176.70
2019-04-29T19:46:08.016Z,168.67
2019-04-29T19:47:47.475Z,167.80
2019-04-29T19:49:22.792Z,195.03
2019-04-29T19:51:14.541Z,168.93
2019-04-29T19:52:37.445Z,166.03
2019-04-29T19:54:18.550Z,161.57
2019-04-29T19:56:01.414Z,135.17
2019-04-29T19:57:29.957Z,136.60
2019-04-29T19:59:12.154Z,103.20
2019-04-29T20:00:46.962Z,119.67
2019-04-29T20:02:23.794Z,112.87
2019-04-29T20:04:17.343Z,104.00
2019-04-29T20:06:08.420Z,111.20
2019-04-29T20:07:42.339Z,101.07
2019-04-29T20:09:22.433Z,98.93
2019-04-29T20:11:05.217Z,97.87
2019-04-29T20:12:36.990Z,94.23
2019-04-29T20:14:19.116Z,76.37
2019-04-29T20:16:10.079Z,79.27
2019-04-29T20:17:56.600Z,72.27
2019-04-29T20:19:35.325Z,73.40
2019-04-29T20:21:21.451Z,66.57
2019-04-29T20:22:51.944Z,75.03
2019-04-29T20:24:28.616Z,68.73
2019-04-29T20:26:13.841Z,75.27
2019-04-29T20:27:46.033Z,71.80
2019-04-29T20:29:27.325Z,75.13
2019-04-29T20:31:15.329Z,75.43
2019-04-29T20:32:39.518Z,72.13
2019-04-29T20:34:23.656Z,71.10
2019-04-29T20:35:56.003Z,77.90
2019-04-29T20:37:32.630Z,78.83
2019-04-29T20:39:15.258Z,69.50
2019-04-29T20:40:47.608Z,80.50
2019-04-29T20:42:26.002Z,73.00
2019-04-29T20:44:05.888Z,69.63
2019-04-29T20:45:41.451Z,63.20
2019-04-29T20:47:23.383Z,79.30
2019-04-29T20:48:59.572Z,66.23
2019-04-29T20:50:35.988Z,65.20
2019-04-29T20:52:20.589Z,78.13
2019-04-29T20:53:57.053Z,77.83
2019-04-29T20:55:36.584Z,73.87
2019-04-29T20:57:17.320Z,79.70
2019-04-29T20:58:49.749Z,74.93
2019-04-29T21:00:28.171Z,75.97
2019-04-29T21:02:12.451Z,77.17
2019-04-29T21:03:46.240Z,79.53
2019-04-29T21:05:25.438Z,84.67
2019-04-29T21:07:02.809Z,77.70
2019-04-29T21:08:39.593Z,76.90
2019-04-29T21:10:16.492Z,83.33
2019-04-29T21:12:00.140Z,122.70
2019-04-29T21:13:55.967Z,87.17
2019-04-29T21:15:52.325Z,79.60
2019-04-29T21:17:31.517Z,77.67